createdAt,value
2023-02-21T00:00:24.198Z,1022.32
2023-02-21T00:00:56.048Z,1022.42
2023-02-21T00:01:42.150Z,1022.42
2023-02-21T00:02:13.999Z,1022.42
2023-02-21T00:02:46.027Z,1022.52
2023-02-21T00:03:18.061Z,1022.52
2023-02-21T00:03:50.113Z,1022.42
2023-02-21T00:04:21.953Z,1022.42
2023-02-21T00:04:54.026Z,1022.32
2023-02-21T00:05:26.454Z,1022.42
2023-02-21T00:05:57.961Z,1022.42
2023-02-21T00:06:31.043Z,1022.32
2023-02-21T00:07:02.140Z,1022.32
2023-02-21T00:07:35.024Z,1022.32
2023-02-21T00:08:05.881Z,1022.32
2023-02-21T00:08:38.660Z,1022.42
2023-02-21T00:09:10.148Z,1022.42
2023-02-21T00:09:42.724Z,1022.32
2023-02-21T00:10:14.313Z,1022.32
2023-02-21T00:10:46.989Z,1022.21
2023-02-21T00:11:17.817Z,1022.21
2023-02-21T00:11:50.831Z,1022.32
2023-02-21T00:12:22.092Z,1022.32
2023-02-21T00:12:54.929Z,1022.21
2023-02-21T00:13:25.901Z,1022.32
2023-02-21T00:13:58.893Z,1022.32
2023-02-21T00:14:30.060Z,1022.42
2023-02-21T00:15:04.168Z,1022.42
2023-02-21T00:15:34.050Z,1022.42
2023-02-21T00:16:06.942Z,1022.42
2023-02-21T00:16:38.107Z,1022.32
2023-02-21T00:17:10.838Z,1022.32
2023-02-21T00:17:42.006Z,1022.32
2023-02-21T00:18:14.988Z,1022.32
2023-02-21T00:18:45.974Z,1022.21
2023-02-21T00:19:19.052Z,1022.21
2023-02-21T00:19:50.100Z,1022.52
2023-02-21T00:20:23.043Z,1022.52
2023-02-21T00:20:53.977Z,1022.32
2023-02-21T00:21:26.968Z,1022.32
2023-02-21T00:21:57.902Z,1022.32
2023-02-21T00:22:30.934Z,1022.21
2023-02-21T00:23:02.004Z,1022.21
2023-02-21T00:23:35.071Z,1022.01
2023-02-21T00:24:05.949Z,1022.01
2023-02-21T00:24:39.037Z,1022.01
2023-02-21T00:25:10.385Z,1022.01
2023-02-21T00:25:42.748Z,1022.11
2023-02-21T00:26:14.014Z,1022.11
2023-02-21T00:26:46.756Z,1022.01
2023-02-21T00:27:18.103Z,1022.01
2023-02-21T00:27:50.948Z,1022.32
2023-02-21T00:28:22.073Z,1022.32
2023-02-21T00:28:54.729Z,1022.21
2023-02-21T00:29:25.883Z,1022.11
2023-02-21T00:29:58.809Z,1022.11
2023-02-21T00:30:31.439Z,1022.11
2023-02-21T00:31:02.893Z,1022.11
2023-02-21T00:31:33.920Z,1022.21
2023-02-21T00:32:06.933Z,1022.21
2023-02-21T00:32:38.167Z,1021.91
2023-02-21T00:33:11.012Z,1021.91
2023-02-21T00:33:41.888Z,1022.21
2023-02-21T00:34:14.835Z,1022.21
2023-02-21T00:34:46.149Z,1022.01
2023-02-21T00:35:19.067Z,1022.01
2023-02-21T00:35:50.173Z,1021.91
2023-02-21T00:36:22.856Z,1021.91
2023-02-21T00:36:53.863Z,1022.11
2023-02-21T00:37:26.810Z,1022.21
2023-02-21T00:37:58.005Z,1022.21
2023-02-21T00:38:30.995Z,1022.11
2023-02-21T00:39:01.987Z,1022.11
2023-02-21T00:39:34.813Z,1021.91
2023-02-21T00:40:06.692Z,1021.91
2023-02-21T00:40:38.770Z,1021.91
2023-02-21T00:41:10.074Z,1021.91
2023-02-21T00:41:43.088Z,1021.91
2023-02-21T00:42:14.128Z,1021.91
2023-02-21T00:42:46.975Z,1022.01
2023-02-21T00:43:18.000Z,1022.01
2023-02-21T00:43:50.895Z,1022.32
2023-02-21T00:44:21.949Z,1022.32
2023-02-21T00:44:54.757Z,1022.11
2023-02-21T00:45:27.125Z,1022.32
2023-02-21T00:45:58.854Z,1022.32
2023-02-21T00:46:30.006Z,1022.21
2023-02-21T00:47:02.858Z,1022.21
2023-02-21T00:47:34.123Z,1021.91
2023-02-21T00:48:06.898Z,1021.91
2023-02-21T00:48:38.103Z,1022.21
2023-02-21T00:49:10.822Z,1022.21
2023-02-21T00:49:42.076Z,1022.11
2023-02-21T00:50:15.106Z,1022.11
2023-02-21T00:50:46.070Z,1022.11
2023-02-21T00:51:18.884Z,1022.11
2023-02-21T00:51:49.974Z,1022.01
2023-02-21T00:52:22.928Z,1022.01
2023-02-21T00:52:53.982Z,1022.11
2023-02-21T00:53:26.637Z,1022.11
2023-02-21T00:53:57.946Z,1022.11
2023-02-21T00:54:32.538Z,1022.11
2023-02-21T00:55:02.469Z,1022.11
2023-02-21T00:55:34.749Z,1022.11
2023-02-21T00:56:06.075Z,1022.11
2023-02-21T00:56:39.016Z,1022.21
2023-02-21T00:57:09.931Z,1022.21
2023-02-21T00:57:42.832Z,1021.91
2023-02-21T00:58:14.060Z,1021.91
2023-02-21T00:58:46.855Z,1021.84
2023-02-21T00:59:17.936Z,1021.84
2023-02-21T00:59:50.723Z,1021.91
2023-02-21T01:00:23.212Z,1021.91
2023-02-21T01:00:54.828Z,1021.91
2023-02-21T01:01:26.007Z,1021.74
2023-02-21T01:01:58.808Z,1021.74
2023-02-21T01:02:30.082Z,1021.91
2023-02-21T01:03:02.987Z,1021.91
2023-02-21T01:03:34.029Z,1021.91
2023-02-21T01:04:06.927Z,1021.91
2023-02-21T01:04:37.999Z,1022.11
2023-02-21T01:05:11.190Z,1022.11
2023-02-21T01:05:42.084Z,1021.91
2023-02-21T01:06:14.642Z,1021.91
2023-02-21T01:06:46.056Z,1021.74
2023-02-21T01:07:18.857Z,1021.74
2023-02-21T01:07:50.121Z,1021.91
2023-02-21T01:08:22.812Z,1021.91
2023-02-21T01:08:53.965Z,1021.84
2023-02-21T01:09:26.838Z,1021.84
2023-02-21T01:09:58.189Z,1021.84
2023-02-21T01:10:31.193Z,1021.84
2023-02-21T01:11:02.133Z,1021.84
2023-02-21T01:11:35.005Z,1022.11
2023-02-21T01:12:05.932Z,1022.11
2023-02-21T01:12:38.895Z,1021.84
2023-02-21T01:13:10.104Z,1021.84
2023-02-21T01:13:42.758Z,1022.01
2023-02-21T01:14:13.959Z,1022.01
2023-02-21T01:14:46.723Z,1022.01
2023-02-21T01:15:19.150Z,1022.01
2023-02-21T01:15:51.157Z,1021.91
2023-02-21T01:16:22.118Z,1021.91
2023-02-21T01:16:57.297Z,1021.84
2023-02-21T01:17:25.997Z,1021.91
2023-02-21T01:17:58.588Z,1021.91
2023-02-21T01:18:30.052Z,1022.01
2023-02-21T01:19:02.809Z,1022.01
2023-02-21T01:19:33.964Z,1021.84
2023-02-21T01:20:07.009Z,1021.84
2023-02-21T01:20:38.024Z,1021.84
2023-02-21T01:21:10.785Z,1021.84
2023-02-21T01:21:41.990Z,1021.91
2023-02-21T01:22:14.825Z,1021.91
2023-02-21T01:22:46.095Z,1022.01
2023-02-21T01:23:18.798Z,1022.01
2023-02-21T01:23:50.077Z,1022.01
2023-02-21T01:24:22.855Z,1022.01
2023-02-21T01:24:54.137Z,1021.74
2023-02-21T01:25:27.948Z,1021.84
2023-02-21T01:25:58.104Z,1021.84
2023-02-21T01:26:30.875Z,1022.01
2023-02-21T01:27:02.038Z,1022.01
2023-02-21T01:27:18.146Z,1022.01
2023-02-21T01:27:50.013Z,1022.01
2023-02-21T01:28:22.021Z,1022.01
2023-02-21T01:28:54.096Z,1021.84
2023-02-21T01:29:26.080Z,1021.84
2023-02-21T01:29:58.025Z,1021.84
2023-02-21T01:30:31.336Z,1021.84
2023-02-21T01:31:02.205Z,1021.84
2023-02-21T01:31:33.982Z,1021.91
2023-02-21T01:32:06.746Z,1021.91
2023-02-21T01:32:38.247Z,1022.01
2023-02-21T01:33:10.786Z,1022.01
2023-02-21T01:33:41.961Z,1022.01
2023-02-21T01:34:14.730Z,1022.01
2023-02-21T01:34:46.069Z,1021.84
2023-02-21T01:35:19.178Z,1021.84
2023-02-21T01:35:50.138Z,1022.01
2023-02-21T01:36:23.010Z,1022.01
2023-02-21T01:36:53.988Z,1021.74
2023-02-21T01:37:26.930Z,1022.01
2023-02-21T01:37:58.061Z,1022.01
2023-02-21T01:38:31.047Z,1021.91
2023-02-21T01:39:02.063Z,1021.91
2023-02-21T01:39:37.943Z,1021.84
2023-02-21T01:40:06.682Z,1021.84
2023-02-21T01:40:38.838Z,1021.64
2023-02-21T01:41:10.015Z,1021.64
2023-02-21T01:41:43.057Z,1022.01
2023-02-21T01:42:13.969Z,1022.01
2023-02-21T01:42:47.591Z,1021.91
2023-02-21T01:43:18.055Z,1021.91
2023-02-21T01:43:51.052Z,1022.01
2023-02-21T01:44:22.040Z,1022.01
2023-02-21T01:44:54.819Z,1021.84
2023-02-21T01:45:27.146Z,1022.01
2023-02-21T01:45:59.143Z,1022.01
2023-02-21T01:46:30.136Z,1022.01
2023-02-21T01:47:02.820Z,1022.01
2023-02-21T01:47:34.196Z,1021.84
2023-02-21T01:48:07.001Z,1021.84
2023-02-21T01:48:38.041Z,1021.64
2023-02-21T01:49:11.066Z,1021.64
2023-02-21T01:49:42.118Z,1021.74
2023-02-21T01:50:18.112Z,1021.74
2023-02-21T01:50:46.096Z,1021.84
2023-02-21T01:51:19.081Z,1021.84
2023-02-21T01:51:49.958Z,1021.74
2023-02-21T01:52:23.000Z,1021.74
2023-02-21T01:52:54.093Z,1022.01
2023-02-21T01:53:26.923Z,1021.74
2023-02-21T01:53:57.963Z,1021.74
2023-02-21T01:54:30.923Z,1021.64
2023-02-21T01:55:02.454Z,1021.64
2023-02-21T01:55:34.970Z,1022.11
2023-02-21T01:56:05.952Z,1022.11
2023-02-21T01:56:38.857Z,1021.74
2023-02-21T01:57:09.898Z,1021.74
2023-02-21T01:57:42.923Z,1022.01
2023-02-21T01:58:14.078Z,1022.01
2023-02-21T01:58:46.944Z,1021.84
2023-02-21T01:59:18.041Z,1021.84
2023-02-21T01:59:50.834Z,1021.91
2023-02-21T02:00:23.153Z,1021.91
2023-02-21T02:00:54.874Z,1022.01
2023-02-21T02:01:26.081Z,1021.84
2023-02-21T02:01:58.876Z,1021.84
2023-02-21T02:02:30.107Z,1021.74
2023-02-21T02:03:02.928Z,1021.74
2023-02-21T02:03:34.097Z,1021.74
2023-02-21T02:04:06.979Z,1021.74
2023-02-21T02:04:38.036Z,1021.74
2023-02-21T02:05:11.118Z,1021.74
2023-02-21T02:05:42.075Z,1021.84
2023-02-21T02:06:18.736Z,1021.84
2023-02-21T02:06:46.108Z,1021.64
2023-02-21T02:07:18.077Z,1021.64
2023-02-21T02:07:50.101Z,1021.74
2023-02-21T02:08:22.023Z,1021.74
2023-02-21T02:08:56.704Z,1022.11
2023-02-21T02:09:26.209Z,1021.91
2023-02-21T02:09:58.877Z,1021.91
2023-02-21T02:10:30.435Z,1021.84
2023-02-21T02:11:02.879Z,1021.84
2023-02-21T02:11:33.923Z,1021.84
2023-02-21T02:12:07.092Z,1021.84
2023-02-21T02:12:38.186Z,1021.64
2023-02-21T02:13:11.053Z,1021.64
2023-02-21T02:13:42.033Z,1021.74
2023-02-21T02:14:14.895Z,1021.74
2023-02-21T02:14:46.186Z,1021.74
2023-02-21T02:15:19.922Z,1021.74
2023-02-21T02:15:50.202Z,1021.74
2023-02-21T02:16:23.040Z,1021.74
2023-02-21T02:16:54.174Z,1021.91
2023-02-21T02:17:26.925Z,1021.74
2023-02-21T02:17:58.042Z,1021.74
2023-02-21T02:18:30.962Z,1021.64
2023-02-21T02:19:01.949Z,1021.64
2023-02-21T02:19:37.256Z,1021.84
2023-02-21T02:20:06.261Z,1021.84
2023-02-21T02:20:41.562Z,1021.74
2023-02-21T02:21:09.961Z,1021.74
2023-02-21T02:21:43.689Z,1021.74
2023-02-21T02:22:14.143Z,1021.74
2023-02-21T02:22:46.901Z,1021.74
2023-02-21T02:23:17.968Z,1021.74
2023-02-21T02:23:50.890Z,1021.91
2023-02-21T02:24:22.197Z,1021.91
2023-02-21T02:24:54.759Z,1021.74
2023-02-21T02:25:26.421Z,1021.84
2023-02-21T02:25:59.071Z,1021.84
2023-02-21T02:26:30.011Z,1021.74
2023-02-21T02:27:02.631Z,1021.74
2023-02-21T02:27:34.097Z,1021.84
2023-02-21T02:28:06.860Z,1021.84
2023-02-21T02:28:38.074Z,1021.74
2023-02-21T02:29:11.015Z,1021.74
2023-02-21T02:29:42.117Z,1021.84
2023-02-21T02:30:15.705Z,1021.84
2023-02-21T02:30:46.296Z,1021.54
2023-02-21T02:31:19.346Z,1021.54
2023-02-21T02:31:50.025Z,1021.84
2023-02-21T02:32:22.853Z,1021.84
2023-02-21T02:32:54.026Z,1021.84
2023-02-21T02:33:27.037Z,1021.54
2023-02-21T02:33:58.072Z,1021.54
2023-02-21T02:34:31.002Z,1021.54
2023-02-21T02:35:02.600Z,1021.54
2023-02-21T02:35:42.478Z,1021.74
2023-02-21T02:36:06.067Z,1021.74
2023-02-21T02:36:38.170Z,1021.84
2023-02-21T02:37:10.882Z,1021.84
2023-02-21T02:37:42.040Z,1021.64
2023-02-21T02:38:14.824Z,1021.64
2023-02-21T02:38:46.187Z,1021.84
2023-02-21T02:39:18.933Z,1021.84
2023-02-21T02:39:50.091Z,1021.74
2023-02-21T02:40:23.289Z,1021.74
2023-02-21T02:40:53.956Z,1021.74
2023-02-21T02:41:26.792Z,1021.54
2023-02-21T02:41:58.155Z,1021.54
2023-02-21T02:42:33.881Z,1021.54
2023-02-21T02:43:02.010Z,1021.54
2023-02-21T02:43:34.985Z,1021.74
2023-02-21T02:44:06.102Z,1021.74
2023-02-21T02:44:38.801Z,1021.43
2023-02-21T02:45:11.084Z,1021.43
2023-02-21T02:45:43.076Z,1021.74
2023-02-21T02:46:14.034Z,1021.74
2023-02-21T02:46:46.887Z,1021.74
2023-02-21T02:47:18.156Z,1021.74
2023-02-21T02:47:51.837Z,1021.74
2023-02-21T02:48:21.971Z,1021.74
2023-02-21T02:48:54.765Z,1021.43
2023-02-21T02:49:26.107Z,1021.74
2023-02-21T02:49:58.663Z,1021.74
2023-02-21T02:50:30.400Z,1021.74
2023-02-21T02:51:04.095Z,1021.74
2023-02-21T02:51:33.974Z,1021.64
2023-02-21T02:52:07.088Z,1021.64
2023-02-21T02:52:38.118Z,1021.74
2023-02-21T02:53:12.078Z,1021.74
2023-02-21T02:53:42.002Z,1021.74
2023-02-21T02:54:14.911Z,1021.74
2023-02-21T02:54:46.082Z,1021.74
2023-02-21T02:55:19.033Z,1021.74
2023-02-21T02:55:50.046Z,1021.54
2023-02-21T02:56:22.869Z,1021.54
2023-02-21T02:56:53.996Z,1021.84
2023-02-21T02:57:26.974Z,1021.91
2023-02-21T02:57:58.008Z,1021.91
2023-02-21T02:58:31.023Z,1021.74
2023-02-21T02:59:02.019Z,1021.74
2023-02-21T02:59:34.858Z,1021.84
2023-02-21T03:00:07.614Z,1021.84
2023-02-21T03:00:39.745Z,1021.74
2023-02-21T03:01:10.080Z,1021.74
2023-02-21T03:01:43.105Z,1021.74
2023-02-21T03:02:14.023Z,1021.74
2023-02-21T03:02:46.980Z,1021.54
2023-02-21T03:03:18.132Z,1021.54
2023-02-21T03:03:50.976Z,1021.84
2023-02-21T03:04:21.986Z,1021.84
2023-02-21T03:04:55.123Z,1021.74
2023-02-21T03:05:26.443Z,1021.84
2023-02-21T03:05:58.822Z,1021.84
2023-02-21T03:06:30.105Z,1021.84
2023-02-21T03:07:03.102Z,1021.84
2023-02-21T03:07:36.456Z,1021.84
2023-02-21T03:08:06.799Z,1021.84
2023-02-21T03:08:38.053Z,1021.91
2023-02-21T03:09:10.834Z,1021.91
2023-02-21T03:09:41.910Z,1021.84
2023-02-21T03:10:15.145Z,1021.84
2023-02-21T03:10:46.048Z,1021.84
2023-02-21T03:11:19.073Z,1021.84
2023-02-21T03:11:49.977Z,1021.84
2023-02-21T03:12:23.207Z,1021.84
2023-02-21T03:12:54.107Z,1021.74
2023-02-21T03:13:27.603Z,1021.74
2023-02-21T03:13:58.077Z,1021.74
2023-02-21T03:14:31.030Z,1021.84
2023-02-21T03:15:03.600Z,1021.84
2023-02-21T03:15:35.051Z,1021.91
2023-02-21T03:16:06.130Z,1021.91
2023-02-21T03:16:39.055Z,1021.84
2023-02-21T03:17:10.002Z,1021.84
2023-02-21T03:17:42.864Z,1021.64
2023-02-21T03:18:14.073Z,1021.64
2023-02-21T03:18:46.890Z,1022.01
2023-02-21T03:19:18.035Z,1022.01
2023-02-21T03:19:50.840Z,1021.74
2023-02-21T03:20:22.478Z,1021.74
2023-02-21T03:20:54.767Z,1021.84
2023-02-21T03:21:26.061Z,1021.84
2023-02-21T03:21:59.035Z,1021.84
2023-02-21T03:22:30.156Z,1021.84
2023-02-21T03:23:02.697Z,1021.84
2023-02-21T03:23:34.018Z,1021.91
2023-02-21T03:24:07.236Z,1021.91
2023-02-21T03:24:37.983Z,1021.91
2023-02-21T03:25:11.199Z,1021.91
2023-02-21T03:25:42.119Z,1022.01
2023-02-21T03:26:15.199Z,1022.01
2023-02-21T03:26:45.980Z,1021.84
2023-02-21T03:27:18.859Z,1021.84
2023-02-21T03:27:50.238Z,1022.01
2023-02-21T03:28:22.920Z,1022.01
2023-02-21T03:28:54.046Z,1021.91
2023-02-21T03:29:26.874Z,1021.84
2023-02-21T03:29:58.211Z,1021.84
2023-02-21T03:30:31.932Z,1021.74
2023-02-21T03:31:02.035Z,1021.74
2023-02-21T03:31:50.241Z,1021.84
2023-02-21T03:32:22.160Z,1021.84
2023-02-21T03:32:54.204Z,1021.64
2023-02-21T03:33:25.969Z,1021.64
2023-02-21T03:33:58.039Z,1021.64
2023-02-21T03:34:31.181Z,1021.74
2023-02-21T03:35:02.388Z,1021.74
2023-02-21T03:35:18.329Z,1021.74
2023-02-21T03:35:50.346Z,1021.54
2023-02-21T03:36:22.029Z,1021.54
2023-02-21T03:36:56.010Z,1022.11
2023-02-21T03:37:26.094Z,1021.64
2023-02-21T03:37:58.925Z,1021.64
2023-02-21T03:38:30.048Z,1021.84
2023-02-21T03:39:03.178Z,1021.84
2023-02-21T03:39:34.026Z,1021.64
2023-02-21T03:40:07.441Z,1021.64
2023-02-21T03:40:38.077Z,1021.74
2023-02-21T03:41:10.865Z,1021.74
2023-02-21T03:41:41.972Z,1021.74
2023-02-21T03:42:17.988Z,1021.74
2023-02-21T03:42:46.086Z,1021.74
2023-02-21T03:43:18.674Z,1021.74
2023-02-21T03:43:50.001Z,1021.74
2023-02-21T03:44:22.894Z,1021.74
2023-02-21T03:44:54.143Z,1021.74
2023-02-21T03:45:28.021Z,1021.64
2023-02-21T03:45:58.116Z,1021.64
2023-02-21T03:46:30.913Z,1021.84
2023-02-21T03:47:01.984Z,1021.84
2023-02-21T03:47:34.935Z,1021.84
2023-02-21T03:48:06.046Z,1021.84
2023-02-21T03:48:39.050Z,1021.74
2023-02-21T03:49:09.998Z,1021.74
2023-02-21T03:49:43.768Z,1021.84
2023-02-21T03:50:14.433Z,1021.84
2023-02-21T03:50:46.998Z,1021.84
2023-02-21T03:51:18.044Z,1021.84
2023-02-21T03:51:51.069Z,1021.84
2023-02-21T03:52:22.163Z,1021.84
2023-02-21T03:52:54.912Z,1021.64
2023-02-21T03:53:26.063Z,1021.74
2023-02-21T03:53:59.003Z,1021.74
2023-02-21T03:54:29.984Z,1021.84
2023-02-21T03:55:03.388Z,1021.84
2023-02-21T03:55:34.107Z,1021.54
2023-02-21T03:56:06.995Z,1021.54
2023-02-21T03:56:42.132Z,1021.84
2023-02-21T03:57:10.956Z,1021.84
2023-02-21T03:57:42.009Z,1021.74
2023-02-21T03:58:19.842Z,1021.74
2023-02-21T03:58:46.011Z,1021.74
2023-02-21T03:59:18.191Z,1021.74
2023-02-21T03:59:50.176Z,1021.74
2023-02-21T04:00:23.354Z,1021.74
2023-02-21T04:00:55.139Z,1021.91
2023-02-21T04:01:26.116Z,1021.54
2023-02-21T04:01:58.813Z,1021.54
2023-02-21T04:02:30.069Z,1021.91
2023-02-21T04:03:03.876Z,1021.91
2023-02-21T04:03:34.124Z,1021.84
2023-02-21T04:04:10.956Z,1021.84
2023-02-21T04:04:38.095Z,1021.74
2023-02-21T04:05:10.464Z,1021.74
2023-02-21T04:05:42.067Z,1021.74
2023-02-21T04:06:14.045Z,1021.74
2023-02-21T04:06:46.165Z,1021.84
2023-02-21T04:07:18.230Z,1021.84
2023-02-21T04:07:50.004Z,1021.64
2023-02-21T04:08:22.133Z,1021.64
2023-02-21T04:08:54.147Z,1021.64
2023-02-21T04:09:26.057Z,1021.54
2023-02-21T04:09:59.804Z,1021.54
2023-02-21T04:10:32.510Z,1021.84
2023-02-21T04:11:02.871Z,1021.84
2023-02-21T04:11:33.992Z,1021.64
2023-02-21T04:12:06.950Z,1021.64
2023-02-21T04:12:38.242Z,1021.64
2023-02-21T04:13:10.912Z,1021.64
2023-02-21T04:13:42.073Z,1021.74
2023-02-21T04:14:14.953Z,1021.74
2023-02-21T04:14:45.974Z,1021.54
2023-02-21T04:15:20.090Z,1021.54
2023-02-21T04:15:50.377Z,1021.74
2023-02-21T04:16:23.080Z,1021.74
2023-02-21T04:16:54.094Z,1021.64
2023-02-21T04:32:06.241Z,1021.74
2023-02-21T04:32:38.111Z,1021.64
2023-02-21T04:33:11.062Z,1021.64
2023-02-21T04:33:42.064Z,1021.54
2023-02-21T04:34:14.888Z,1021.54
2023-02-21T04:34:46.184Z,1021.54
2023-02-21T04:35:20.360Z,1021.54
2023-02-21T04:35:50.008Z,1021.33
2023-02-21T04:36:22.716Z,1021.33
2023-02-21T04:36:54.065Z,1021.74
2023-02-21T04:37:27.071Z,1021.74
2023-02-21T04:37:57.900Z,1021.74
2023-02-21T04:38:33.940Z,1021.43
2023-02-21T04:39:02.147Z,1021.43
2023-02-21T04:39:35.044Z,1021.54
2023-02-21T04:40:06.713Z,1021.54
2023-02-21T04:40:38.975Z,1021.64
2023-02-21T04:41:10.185Z,1021.64
2023-02-21T04:41:42.947Z,1021.43
2023-02-21T04:42:14.141Z,1021.43
2023-02-21T04:42:47.120Z,1021.54
2023-02-21T04:43:18.027Z,1021.54
2023-02-21T04:43:55.104Z,1021.43
2023-02-21T04:44:22.096Z,1021.43
2023-02-21T04:45:00.030Z,1021.43
2023-02-21T04:45:27.321Z,1021.43
2023-02-21T04:45:58.267Z,1021.43
2023-02-21T04:46:30.161Z,1021.64
2023-02-21T04:47:01.988Z,1021.64
2023-02-21T04:47:18.226Z,1021.64
2023-02-21T04:47:50.183Z,1021.43
2023-02-21T04:48:22.105Z,1021.43
2023-02-21T04:48:54.987Z,1021.43
2023-02-21T04:49:26.229Z,1021.64
2023-02-21T04:49:58.793Z,1021.64
2023-02-21T04:50:30.452Z,1021.54
2023-02-21T04:51:14.714Z,1021.54
2023-02-21T04:51:34.053Z,1021.43
2023-02-21T04:52:06.929Z,1021.43
2023-02-21T04:52:38.200Z,1021.43
2023-02-21T04:53:11.216Z,1021.43
2023-02-21T04:53:42.008Z,1021.43
2023-02-21T04:54:14.873Z,1021.43
2023-02-21T04:54:46.136Z,1021.23
2023-02-21T04:55:19.112Z,1021.23
2023-02-21T04:55:50.127Z,1021.43
2023-02-21T04:56:23.075Z,1021.43
2023-02-21T04:56:54.332Z,1021.43
2023-02-21T04:57:26.879Z,1021.43
2023-02-21T04:57:58.096Z,1021.43
2023-02-21T04:58:39.668Z,1021.03
2023-02-21T04:59:02.144Z,1021.03
2023-02-21T04:59:40.458Z,1021.33
2023-02-21T05:00:07.528Z,1021.33
2023-02-21T05:00:38.525Z,1021.54
2023-02-21T05:01:10.742Z,1021.54
2023-02-21T05:01:42.037Z,1021.23
2023-02-21T05:02:15.033Z,1021.23
2023-02-21T05:02:46.105Z,1021.33
2023-02-21T05:03:24.365Z,1021.33
2023-02-21T05:03:50.071Z,1021.33
2023-02-21T05:04:22.114Z,1021.33
2023-02-21T05:04:55.638Z,1021.23
2023-02-21T05:05:26.353Z,1021.23
2023-02-21T05:06:02.874Z,1021.23
2023-02-21T05:06:29.858Z,1021.33
2023-02-21T05:07:02.127Z,1021.33
2023-02-21T05:07:35.852Z,1021.43
2023-02-21T05:08:06.148Z,1021.43
2023-02-21T05:08:38.990Z,1021.23
2023-02-21T05:09:10.137Z,1021.23
2023-02-21T05:09:42.911Z,1021.33
2023-02-21T05:10:14.314Z,1021.33
2023-02-21T05:10:46.925Z,1021.43
2023-02-21T05:11:18.272Z,1021.43
2023-02-21T05:11:50.952Z,1021.33
2023-02-21T05:12:22.057Z,1021.33
2023-02-21T05:12:55.751Z,1021.33
2023-02-21T05:13:26.189Z,1021.33
2023-02-21T05:13:58.863Z,1021.33
2023-02-21T05:14:30.124Z,1021.23
2023-02-21T05:15:04.604Z,1021.23
2023-02-21T05:15:34.261Z,1021.33
2023-02-21T05:16:07.852Z,1021.33
2023-02-21T05:16:38.201Z,1021.54
2023-02-21T05:17:10.982Z,1021.54
2023-02-21T05:17:42.033Z,1021.33
2023-02-21T05:18:14.900Z,1021.33
2023-02-21T05:18:46.310Z,1021.33
2023-02-21T05:19:18.926Z,1021.33
2023-02-21T05:19:50.071Z,1021.43
2023-02-21T05:20:23.211Z,1021.43
2023-02-21T05:20:54.216Z,1021.23
2023-02-21T05:21:26.679Z,1021.43
2023-02-21T05:21:58.140Z,1021.43
2023-02-21T05:22:31.082Z,1021.43
2023-02-21T05:23:12.826Z,1021.43
2023-02-21T05:23:34.911Z,1021.43
2023-02-21T05:24:06.255Z,1021.43
2023-02-21T05:24:39.050Z,1021.43
2023-02-21T05:25:10.251Z,1021.43
2023-02-21T05:25:42.782Z,1021.23
2023-02-21T05:26:14.169Z,1021.23
2023-02-21T05:26:46.886Z,1021.43
2023-02-21T05:27:18.116Z,1021.43
2023-02-21T05:27:51.029Z,1021.33
2023-02-21T05:28:22.242Z,1021.33
2023-02-21T05:28:54.828Z,1021.23
2023-02-21T05:29:26.054Z,1021.23
2023-02-21T05:29:58.914Z,1021.23
2023-02-21T05:30:31.695Z,1021.43
2023-02-21T05:31:03.083Z,1021.43
2023-02-21T05:31:34.107Z,1021.23
2023-02-21T05:32:07.190Z,1021.23
2023-02-21T05:32:38.053Z,1021.23
2023-02-21T05:33:10.749Z,1021.23
2023-02-21T05:33:42.060Z,1021.33
2023-02-21T05:34:16.578Z,1021.33
2023-02-21T05:34:46.119Z,1021.43
2023-02-21T05:35:21.863Z,1021.43
2023-02-21T05:35:50.149Z,1021.33
2023-02-21T05:36:22.845Z,1021.33
2023-02-21T05:36:54.052Z,1021.23
2023-02-21T05:37:27.010Z,1021.13
2023-02-21T05:37:58.158Z,1021.13
2023-02-21T05:38:30.904Z,1021.23
2023-02-21T05:39:02.211Z,1021.23
2023-02-21T05:39:34.937Z,1021.33
2023-02-21T05:40:06.905Z,1021.33
2023-02-21T05:40:38.970Z,1021.23
2023-02-21T05:41:10.153Z,1021.23
2023-02-21T05:41:43.803Z,1021.13
2023-02-21T05:42:14.122Z,1021.13
2023-02-21T05:42:47.235Z,1021.33
2023-02-21T05:43:18.145Z,1021.33
2023-02-21T05:43:56.534Z,1021.33
2023-02-21T05:44:22.072Z,1021.33
2023-02-21T05:44:54.148Z,1021.33
2023-02-21T05:45:28.007Z,1021.54
2023-02-21T05:45:58.126Z,1021.54
2023-02-21T05:46:31.040Z,1021.64
2023-02-21T05:47:02.222Z,1021.64
2023-02-21T05:47:35.880Z,1021.23
2023-02-21T05:48:06.167Z,1021.23
2023-02-21T05:48:40.960Z,1021.33
2023-02-21T05:49:10.236Z,1021.33
2023-02-21T05:49:42.825Z,1021.23
2023-02-21T05:50:14.425Z,1021.23
2023-02-21T05:50:47.000Z,1021.43
2023-02-21T05:51:18.081Z,1021.43
2023-02-21T05:51:51.162Z,1021.43
2023-02-21T05:52:22.230Z,1021.43
2023-02-21T05:52:55.162Z,1021.74
2023-02-21T05:53:26.045Z,1021.43
2023-02-21T05:53:58.801Z,1021.43
2023-02-21T05:54:29.990Z,1021.33
2023-02-21T05:55:03.125Z,1021.33
2023-02-21T05:55:34.123Z,1021.54
2023-02-21T05:56:13.875Z,1021.54
2023-02-21T05:56:38.046Z,1021.54
2023-02-21T05:57:10.135Z,1021.54
2023-02-21T05:57:42.202Z,1021.33
2023-02-21T05:58:14.282Z,1021.33
2023-02-21T05:58:46.226Z,1021.43
2023-02-21T05:59:18.216Z,1021.43
2023-02-21T05:59:50.219Z,1021.33
2023-02-21T06:00:23.226Z,1021.33
2023-02-21T06:00:55.157Z,1021.33
2023-02-21T06:01:26.119Z,1021.23
2023-02-21T06:01:59.256Z,1021.23
2023-02-21T06:02:30.070Z,1021.43
2023-02-21T06:03:04.901Z,1021.43
2023-02-21T06:03:34.259Z,1021.23
2023-02-21T06:04:06.856Z,1021.23
2023-02-21T06:04:38.125Z,1021.13
2023-02-21T06:05:13.451Z,1021.13
2023-02-21T06:05:42.304Z,1021.23
2023-02-21T06:06:14.809Z,1021.23
2023-02-21T06:06:46.113Z,1021.33
2023-02-21T06:07:19.098Z,1021.33
2023-02-21T06:07:50.111Z,1021.23
2023-02-21T06:08:23.017Z,1021.23
2023-02-21T06:08:54.172Z,1021.43
2023-02-21T06:09:27.064Z,1021.43
2023-02-21T06:09:58.125Z,1021.43
2023-02-21T06:10:31.502Z,1021.43
2023-02-21T06:11:02.291Z,1021.43
2023-02-21T06:11:34.804Z,1021.23
2023-02-21T06:12:06.214Z,1021.23
2023-02-21T06:12:39.118Z,1021.33
2023-02-21T06:13:10.309Z,1021.33
2023-02-21T06:13:42.772Z,1021.33
2023-02-21T06:14:14.101Z,1021.33
2023-02-21T06:14:47.018Z,1021.03
2023-02-21T06:15:18.998Z,1021.03
2023-02-21T06:15:51.133Z,1021.43
2023-02-21T06:16:22.170Z,1021.43
2023-02-21T06:16:54.907Z,1021.33
2023-02-21T06:17:26.145Z,1021.33
2023-02-21T06:17:59.009Z,1021.33
2023-02-21T06:18:30.470Z,1021.43
2023-02-21T06:19:18.106Z,1021.43
2023-02-21T06:19:50.252Z,1021.33
2023-02-21T06:20:22.632Z,1021.33
2023-02-21T06:20:54.398Z,1021.03
2023-02-21T06:21:26.415Z,1021.23
2023-02-21T06:21:58.256Z,1021.23
2023-02-21T06:22:30.362Z,1021.33
2023-02-21T06:23:02.464Z,1021.33
2023-02-21T06:23:34.204Z,1021.33
2023-02-21T06:24:08.308Z,1021.33
2023-02-21T06:24:38.452Z,1021.23
2023-02-21T06:25:11.750Z,1021.23
2023-02-21T06:25:42.252Z,1021.33
2023-02-21T06:26:15.295Z,1021.33
2023-02-21T06:26:46.382Z,1021.23
2023-02-21T06:27:19.270Z,1021.23
2023-02-21T06:27:50.399Z,1021.43
2023-02-21T06:28:23.299Z,1021.43
2023-02-21T06:28:54.468Z,1021.13
2023-02-21T06:29:27.138Z,1021.13
2023-02-21T06:29:58.446Z,1021.13
2023-02-21T06:30:33.019Z,1021.33
2023-02-21T06:31:02.457Z,1021.33
2023-02-21T06:31:35.309Z,1021.23
2023-02-21T06:32:06.388Z,1021.23
2023-02-21T06:32:39.297Z,1021.33
2023-02-21T06:33:10.318Z,1021.33
2023-02-21T06:33:45.135Z,1021.23
2023-02-21T06:34:14.496Z,1021.23
2023-02-21T06:34:47.064Z,1021.13
2023-02-21T06:35:18.588Z,1021.13
2023-02-21T06:35:51.098Z,1021.33
2023-02-21T06:36:22.273Z,1021.33
2023-02-21T06:37:01.065Z,1021.33
2023-02-21T06:37:26.376Z,1021.03
2023-02-21T06:37:58.400Z,1021.03
2023-02-21T06:38:30.460Z,1021.33
2023-02-21T06:39:02.358Z,1021.33
2023-02-21T06:39:34.402Z,1021.23
2023-02-21T06:40:07.022Z,1021.23
2023-02-21T06:40:41.246Z,1021.13
2023-02-21T06:41:10.372Z,1021.13
2023-02-21T06:41:43.318Z,1021.33